sensor_id;sensor_type;location;lat;lon;timestamp;P1;durP1;ratioP1;P2;durP2;ratioP2
842;SDS011;407;48.884;9.126;2022-12-07T00:01:44;12.05;;;6.22;;
842;SDS011;407;48.884;9.126;2022-12-07T00:04:12;14.60;;;7.65;;
842;SDS011;407;48.884;9.126;2022-12-07T00:06:40;13.77;;;6.67;;
842;SDS011;407;48.884;9.126;2022-12-07T00:09:08;14.45;;;7.10;;
842;SDS011;407;48.884;9.126;2022-12-07T00:11:36;12.38;;;6.75;;
842;SDS011;407;48.884;9.126;2022-12-07T00:14:02;16.95;;;7.30;;
842;SDS011;407;48.884;9.126;2022-12-07T00:16:31;14.00;;;6.90;;
842;SDS011;407;48.884;9.126;2022-12-07T00:18:57;14.63;;;6.70;;
842;SDS011;407;48.884;9.126;2022-12-07T00:21:27;17.40;;;7.45;;
842;SDS011;407;48.884;9.126;2022-12-07T00:23:54;16.23;;;8.00;;
842;SDS011;407;48.884;9.126;2022-12-07T00:26:22;18.10;;;8.18;;
842;SDS011;407;48.884;9.126;2022-12-07T00:28:53;19.25;;;7.57;;
842;SDS011;407;48.884;9.126;2022-12-07T00:31:23;20.17;;;7.85;;
842;SDS011;407;48.884;9.126;2022-12-07T00:33:51;16.63;;;6.73;;
842;SDS011;407;48.884;9.126;2022-12-07T00:36:18;13.23;;;6.35;;
842;SDS011;407;48.884;9.126;2022-12-07T00:38:45;15.02;;;6.70;;
842;SDS011;407;48.884;9.126;2022-12-07T00:41:12;15.93;;;7.20;;
842;SDS011;407;48.884;9.126;2022-12-07T00:43:39;16.33;;;6.68;;
842;SDS011;407;48.884;9.126;2022-12-07T00:46:05;16.30;;;6.70;;
842;SDS011;407;48.884;9.126;2022-12-07T00:48:31;16.20;;;6.80;;
842;SDS011;407;48.884;9.126;2022-12-07T00:50:57;16.27;;;6.97;;
842;SDS011;407;48.884;9.126;2022-12-07T00:53:23;16.37;;;6.63;;
842;SDS011;407;48.884;9.126;2022-12-07T00:55:49;15.90;;;6.72;;
842;SDS011;407;48.884;9.126;2022-12-07T00:58:15;15.60;;;7.05;;
842;SDS011;407;48.884;9.126;2022-12-07T01:00:41;12.73;;;6.53;;
842;SDS011;407;48.884;9.126;2022-12-07T01:03:09;12.40;;;6.60;;
842;SDS011;407;48.884;9.126;2022-12-07T01:05:36;14.13;;;6.35;;
842;SDS011;407;48.884;9.126;2022-12-07T01:08:02;13.75;;;6.47;;
842;SDS011;407;48.884;9.126;2022-12-07T01:10:28;14.07;;;6.53;;
842;SDS011;407;48.884;9.126;2022-12-07T01:12:55;12.32;;;5.90;;
842;SDS011;407;48.884;9.126;2022-12-07T01:15:21;14.00;;;6.77;;
842;SDS011;407;48.884;9.126;2022-12-07T01:17:47;14.90;;;6.43;;
842;SDS011;407;48.884;9.126;2022-12-07T01:20:13;16.35;;;6.60;;
842;SDS011;407;48.884;9.126;2022-12-07T01:22:40;13.10;;;6.57;;
842;SDS011;407;48.884;9.126;2022-12-07T01:25:07;13.23;;;6.68;;
842;SDS011;407;48.884;9.126;2022-12-07T01:27:34;15.38;;;6.53;;
842;SDS011;407;48.884;9.126;2022-12-07T01:30:00;13.68;;;6.00;;
842;SDS011;407;48.884;9.126;2022-12-07T01:32:29;14.70;;;6.32;;
842;SDS011;407;48.884;9.126;2022-12-07T01:34:54;14.77;;;6.63;;
842;SDS011;407;48.884;9.126;2022-12-07T01:37:20;14.23;;;5.93;;
842;SDS011;407;48.884;9.126;2022-12-07T01:39:48;13.77;;;6.15;;
842;SDS011;407;48.884;9.126;2022-12-07T01:42:15;14.25;;;6.50;;
842;SDS011;407;48.884;9.126;2022-12-07T01:47:47;14.15;;;6.55;;
842;SDS011;407;48.884;9.126;2022-12-07T01:50:18;15.70;;;7.00;;
842;SDS011;407;48.884;9.126;2022-12-07T01:52:45;15.45;;;6.63;;
842;SDS011;407;48.884;9.126;2022-12-07T01:55:14;23.48;;;6.80;;
842;SDS011;407;48.884;9.126;2022-12-07T01:57:42;12.37;;;5.80;;
842;SDS011;407;48.884;9.126;2022-12-07T02:00:12;13.70;;;6.82;;
842;SDS011;407;48.884;9.126;2022-12-07T02:03:01;14.35;;;6.65;;
842;SDS011;407;48.884;9.126;2022-12-07T02:05:26;15.60;;;7.30;;
842;SDS011;407;48.884;9.126;2022-12-07T02:07:53;14.95;;;6.40;;
842;SDS011;407;48.884;9.126;2022-12-07T02:12:55;12.80;;;6.18;;
842;SDS011;407;48.884;9.126;2022-12-07T02:15:46;18.90;;;6.40;;
842;SDS011;407;48.884;9.126;2022-12-07T02:18:25;15.10;;;7.20;;
842;SDS011;407;48.884;9.126;2022-12-07T02:21:11;13.87;;;6.70;;
842;SDS011;407;48.884;9.126;2022-12-07T02:31:35;14.07;;;6.80;;
842;SDS011;407;48.884;9.126;2022-12-07T02:34:30;16.30;;;6.40;;
842;SDS011;407;48.884;9.126;2022-12-07T02:37:21;14.37;;;6.80;;
842;SDS011;407;48.884;9.126;2022-12-07T02:40:05;13.80;;;6.50;;
842;SDS011;407;48.884;9.126;2022-12-07T02:45:48;13.48;;;6.00;;
842;SDS011;407;48.884;9.126;2022-12-07T02:48:17;14.38;;;5.90;;
842;SDS011;407;48.884;9.126;2022-12-07T02:50:47;15.30;;;5.82;;
842;SDS011;407;48.884;9.126;2022-12-07T02:58:54;14.45;;;5.95;;
842;SDS011;407;48.884;9.126;2022-12-07T03:07:00;13.87;;;6.33;;
842;SDS011;407;48.884;9.126;2022-12-07T03:12:24;14.35;;;5.85;;
842;SDS011;407;48.884;9.126;2022-12-07T03:14:58;13.95;;;6.25;;
842;SDS011;407;48.884;9.126;2022-12-07T03:17:28;13.35;;;6.15;;
842;SDS011;407;48.884;9.126;2022-12-07T03:19:58;15.17;;;5.80;;
842;SDS011;407;48.884;9.126;2022-12-07T03:22:25;13.88;;;5.78;;
842;SDS011;407;48.884;9.126;2022-12-07T03:24:59;15.05;;;6.07;;
842;SDS011;407;48.884;9.126;2022-12-07T03:27:33;14.70;;;6.65;;
842;SDS011;407;48.884;9.126;2022-12-07T03:30:09;13.43;;;6.13;;
842;SDS011;407;48.884;9.126;2022-12-07T03:33:06;13.50;;;6.00;;
842;SDS011;407;48.884;9.126;2022-12-07T03:35:44;13.50;;;6.20;;
842;SDS011;407;48.884;9.126;2022-12-07T03:38:27;13.65;;;6.75;;
842;SDS011;407;48.884;9.126;2022-12-07T03:41:02;12.05;;;6.05;;
842;SDS011;407;48.884;9.126;2022-12-07T03:43:36;16.40;;;7.07;;
842;SDS011;407;48.884;9.126;2022-12-07T03:48:54;18.13;;;7.07;;
842;SDS011;407;48.884;9.126;2022-12-07T03:53:59;17.77;;;7.30;;
842;SDS011;407;48.884;9.126;2022-12-07T03:56:41;15.90;;;6.13;;
842;SDS011;407;48.884;9.126;2022-12-07T03:59:09;13.63;;;6.77;;
842;SDS011;407;48.884;9.126;2022-12-07T04:01:36;14.50;;;6.85;;
842;SDS011;407;48.884;9.126;2022-12-07T04:04:01;14.07;;;6.30;;
842;SDS011;407;48.884;9.126;2022-12-07T04:06:27;12.18;;;5.43;;
842;SDS011;407;48.884;9.126;2022-12-07T04:08:53;14.30;;;6.53;;
842;SDS011;407;48.884;9.126;2022-12-07T04:11:18;15.15;;;7.03;;
842;SDS011;407;48.884;9.126;2022-12-07T04:13:44;16.67;;;6.77;;
842;SDS011;407;48.884;9.126;2022-12-07T04:16:28;16.42;;;7.13;;
842;SDS011;407;48.884;9.126;2022-12-07T04:18:54;18.40;;;7.17;;
842;SDS011;407;48.884;9.126;2022-12-07T04:21:19;14.98;;;6.60;;
842;SDS011;407;48.884;9.126;2022-12-07T04:23:45;14.93;;;6.77;;
842;SDS011;407;48.884;9.126;2022-12-07T04:26:10;14.00;;;5.75;;
842;SDS011;407;48.884;9.126;2022-12-07T04:28:36;14.20;;;6.20;;
842;SDS011;407;48.884;9.126;2022-12-07T04:31:01;12.20;;;5.47;;
842;SDS011;407;48.884;9.126;2022-12-07T04:33:27;14.23;;;6.20;;
842;SDS011;407;48.884;9.126;2022-12-07T04:35:53;14.70;;;6.20;;
842;SDS011;407;48.884;9.126;2022-12-07T04:38:18;15.00;;;6.38;;
842;SDS011;407;48.884;9.126;2022-12-07T04:40:44;14.67;;;6.97;;
842;SDS011;407;48.884;9.126;2022-12-07T04:43:09;15.93;;;6.70;;
842;SDS011;407;48.884;9.126;2022-12-07T04:45:35;14.57;;;6.40;;
842;SDS011;407;48.884;9.126;2022-12-07T04:48:01;14.45;;;6.30;;
842;SDS011;407;48.884;9.126;2022-12-07T04:50:26;15.83;;;6.40;;
842;SDS011;407;48.884;9.126;2022-12-07T04:52:52;13.07;;;6.45;;
842;SDS011;407;48.884;9.126;2022-12-07T04:55:17;14.20;;;6.83;;
842;SDS011;407;48.884;9.126;2022-12-07T04:57:43;16.10;;;7.03;;
842;SDS011;407;48.884;9.126;2022-12-07T05:00:09;13.98;;;6.05;;
842;SDS011;407;48.884;9.126;2022-12-07T05:02:35;15.35;;;7.07;;
842;SDS011;407;48.884;9.126;2022-12-07T05:05:00;16.00;;;6.90;;
842;SDS011;407;48.884;9.126;2022-12-07T05:07:26;17.70;;;6.75;;
842;SDS011;407;48.884;9.126;2022-12-07T05:09:51;16.37;;;7.37;;
842;SDS011;407;48.884;9.126;2022-12-07T05:12:17;16.77;;;7.53;;
842;SDS011;407;48.884;9.126;2022-12-07T05:14:43;18.50;;;7.90;;
842;SDS011;407;48.884;9.126;2022-12-07T05:17:08;14.40;;;7.00;;
842;SDS011;407;48.884;9.126;2022-12-07T05:19:34;14.77;;;6.95;;
842;SDS011;407;48.884;9.126;2022-12-07T05:21:59;14.13;;;6.70;;
842;SDS011;407;48.884;9.126;2022-12-07T05:24:25;16.52;;;6.75;;
842;SDS011;407;48.884;9.126;2022-12-07T05:26:51;18.63;;;8.20;;
842;SDS011;407;48.884;9.126;2022-12-07T05:29:16;16.27;;;7.30;;
842;SDS011;407;48.884;9.126;2022-12-07T05:31:42;15.70;;;7.03;;
842;SDS011;407;48.884;9.126;2022-12-07T05:34:09;17.10;;;7.45;;
842;SDS011;407;48.884;9.126;2022-12-07T05:36:35;17.77;;;6.85;;
842;SDS011;407;48.884;9.126;2022-12-07T05:39:01;14.00;;;6.75;;
842;SDS011;407;48.884;9.126;2022-12-07T05:41:26;15.32;;;6.43;;
842;SDS011;407;48.884;9.126;2022-12-07T05:44:11;16.92;;;7.13;;
842;SDS011;407;48.884;9.126;2022-12-07T05:46:36;15.93;;;6.60;;
842;SDS011;407;48.884;9.126;2022-12-07T05:49:02;14.67;;;6.17;;
842;SDS011;407;48.884;9.126;2022-12-07T05:51:27;14.52;;;5.90;;
842;SDS011;407;48.884;9.126;2022-12-07T05:53:53;13.23;;;6.40;;
842;SDS011;407;48.884;9.126;2022-12-07T05:56:19;15.40;;;6.07;;
842;SDS011;407;48.884;9.126;2022-12-07T05:58:45;14.30;;;6.20;;
842;SDS011;407;48.884;9.126;2022-12-07T06:01:29;14.65;;;6.40;;
842;SDS011;407;48.884;9.126;2022-12-07T06:03:54;11.27;;;5.50;;
842;SDS011;407;48.884;9.126;2022-12-07T06:06:20;13.20;;;5.13;;
842;SDS011;407;48.884;9.126;2022-12-07T06:08:45;14.70;;;7.00;;
842;SDS011;407;48.884;9.126;2022-12-07T06:11:11;13.87;;;5.50;;
842;SDS011;407;48.884;9.126;2022-12-07T06:13:55;15.15;;;6.30;;
842;SDS011;407;48.884;9.126;2022-12-07T06:16:21;13.95;;;4.90;;
842;SDS011;407;48.884;9.126;2022-12-07T06:18:46;15.37;;;5.27;;
842;SDS011;407;48.884;9.126;2022-12-07T06:21:12;14.43;;;5.20;;
842;SDS011;407;48.884;9.126;2022-12-07T06:23:38;11.93;;;4.70;;
842;SDS011;407;48.884;9.126;2022-12-07T06:26:03;10.70;;;4.30;;
842;SDS011;407;48.884;9.126;2022-12-07T06:28:29;10.57;;;4.93;;
842;SDS011;407;48.884;9.126;2022-12-07T06:30:58;13.43;;;5.50;;
842;SDS011;407;48.884;9.126;2022-12-07T06:33:24;12.40;;;5.20;;
842;SDS011;407;48.884;9.126;2022-12-07T06:35:50;11.43;;;4.90;;
842;SDS011;407;48.884;9.126;2022-12-07T06:38:16;11.07;;;4.65;;
842;SDS011;407;48.884;9.126;2022-12-07T06:40:42;12.90;;;5.00;;
842;SDS011;407;48.884;9.126;2022-12-07T06:43:07;11.37;;;4.80;;
842;SDS011;407;48.884;9.126;2022-12-07T06:45:33;12.13;;;5.25;;
842;SDS011;407;48.884;9.126;2022-12-07T06:47:58;13.30;;;4.83;;
842;SDS011;407;48.884;9.126;2022-12-07T06:50:24;11.68;;;4.88;;
842;SDS011;407;48.884;9.126;2022-12-07T06:52:50;10.45;;;4.60;;
842;SDS011;407;48.884;9.126;2022-12-07T06:55:16;11.30;;;4.43;;
842;SDS011;407;48.884;9.126;2022-12-07T06:57:42;10.68;;;4.40;;
842;SDS011;407;48.884;9.126;2022-12-07T07:00:08;10.73;;;4.60;;
842;SDS011;407;48.884;9.126;2022-12-07T07:02:34;11.63;;;4.78;;
842;SDS011;407;48.884;9.126;2022-12-07T07:05:00;14.77;;;5.10;;
842;SDS011;407;48.884;9.126;2022-12-07T07:07:25;9.98;;;4.13;;
842;SDS011;407;48.884;9.126;2022-12-07T07:09:51;11.43;;;5.10;;
842;SDS011;407;48.884;9.126;2022-12-07T07:12:16;11.77;;;5.00;;
842;SDS011;407;48.884;9.126;2022-12-07T07:14:42;11.90;;;4.50;;
842;SDS011;407;48.884;9.126;2022-12-07T07:17:08;10.73;;;4.60;;
842;SDS011;407;48.884;9.126;2022-12-07T07:19:33;11.70;;;4.45;;
842;SDS011;407;48.884;9.126;2022-12-07T07:21:59;10.47;;;4.33;;
842;SDS011;407;48.884;9.126;2022-12-07T07:24:25;12.50;;;4.63;;
842;SDS011;407;48.884;9.126;2022-12-07T07:26:51;10.55;;;4.65;;
842;SDS011;407;48.884;9.126;2022-12-07T07:29:16;10.20;;;4.32;;
842;SDS011;407;48.884;9.126;2022-12-07T07:31:42;12.70;;;4.73;;
842;SDS011;407;48.884;9.126;2022-12-07T07:34:07;9.43;;;3.95;;
842;SDS011;407;48.884;9.126;2022-12-07T07:36:33;10.67;;;4.20;;
842;SDS011;407;48.884;9.126;2022-12-07T07:38:59;10.85;;;4.10;;
842;SDS011;407;48.884;9.126;2022-12-07T07:41:24;11.23;;;4.17;;
842;SDS011;407;48.884;9.126;2022-12-07T07:43:50;8.95;;;4.20;;
842;SDS011;407;48.884;9.126;2022-12-07T07:46:15;12.57;;;5.00;;
842;SDS011;407;48.884;9.126;2022-12-07T07:48:41;10.77;;;4.25;;
842;SDS011;407;48.884;9.126;2022-12-07T07:51:07;10.17;;;4.27;;
842;SDS011;407;48.884;9.126;2022-12-07T07:53:33;9.00;;;3.50;;
842;SDS011;407;48.884;9.126;2022-12-07T07:55:59;10.37;;;4.80;;
842;SDS011;407;48.884;9.126;2022-12-07T07:58:24;12.38;;;4.28;;
842;SDS011;407;48.884;9.126;2022-12-07T08:00:50;11.25;;;4.32;;
842;SDS011;407;48.884;9.126;2022-12-07T08:03:16;10.10;;;3.63;;
842;SDS011;407;48.884;9.126;2022-12-07T08:05:42;11.32;;;4.40;;
842;SDS011;407;48.884;9.126;2022-12-07T08:08:07;12.43;;;4.32;;
842;SDS011;407;48.884;9.126;2022-12-07T08:10:33;11.33;;;3.77;;
842;SDS011;407;48.884;9.126;2022-12-07T08:13:00;10.48;;;3.92;;
842;SDS011;407;48.884;9.126;2022-12-07T08:15:44;11.27;;;4.28;;
842;SDS011;407;48.884;9.126;2022-12-07T08:18:13;13.40;;;4.00;;
842;SDS011;407;48.884;9.126;2022-12-07T08:20:39;9.70;;;3.38;;
842;SDS011;407;48.884;9.126;2022-12-07T08:23:06;10.45;;;4.55;;
842;SDS011;407;48.884;9.126;2022-12-07T08:25:33;10.95;;;4.03;;
842;SDS011;407;48.884;9.126;2022-12-07T08:27:59;10.30;;;4.30;;
842;SDS011;407;48.884;9.126;2022-12-07T08:30:25;10.90;;;4.43;;
842;SDS011;407;48.884;9.126;2022-12-07T08:32:51;10.25;;;3.75;;
842;SDS011;407;48.884;9.126;2022-12-07T08:35:17;15.10;;;4.90;;
842;SDS011;407;48.884;9.126;2022-12-07T08:37:42;10.20;;;4.20;;
842;SDS011;407;48.884;9.126;2022-12-07T08:40:09;10.83;;;4.60;;
842;SDS011;407;48.884;9.126;2022-12-07T08:42:35;9.10;;;3.60;;
842;SDS011;407;48.884;9.126;2022-12-07T08:45:09;10.18;;;4.20;;
842;SDS011;407;48.884;9.126;2022-12-07T08:47:37;9.30;;;3.60;;
842;SDS011;407;48.884;9.126;2022-12-07T08:50:06;9.38;;;3.20;;
842;SDS011;407;48.884;9.126;2022-12-07T08:52:34;9.43;;;3.47;;
842;SDS011;407;48.884;9.126;2022-12-07T08:55:01;11.40;;;3.90;;
842;SDS011;407;48.884;9.126;2022-12-07T08:57:28;15.38;;;3.92;;
842;SDS011;407;48.884;9.126;2022-12-07T08:59:54;9.70;;;3.92;;
842;SDS011;407;48.884;9.126;2022-12-07T09:02:19;10.90;;;4.00;;
842;SDS011;407;48.884;9.126;2022-12-07T09:04:45;9.35;;;3.75;;
842;SDS011;407;48.884;9.126;2022-12-07T09:07:11;8.70;;;3.27;;
842;SDS011;407;48.884;9.126;2022-12-07T09:09:37;10.80;;;3.70;;
842;SDS011;407;48.884;9.126;2022-12-07T09:12:02;8.23;;;3.00;;
842;SDS011;407;48.884;9.126;2022-12-07T09:14:28;9.87;;;3.50;;
842;SDS011;407;48.884;9.126;2022-12-07T09:16:54;7.50;;;2.58;;
842;SDS011;407;48.884;9.126;2022-12-07T09:19:19;7.73;;;2.80;;
842;SDS011;407;48.884;9.126;2022-12-07T09:21:45;9.00;;;2.90;;
842;SDS011;407;48.884;9.126;2022-12-07T09:24:11;9.13;;;3.30;;
842;SDS011;407;48.884;9.126;2022-12-07T09:26:37;10.00;;;2.50;;
842;SDS011;407;48.884;9.126;2022-12-07T09:29:05;9.03;;;2.67;;
842;SDS011;407;48.884;9.126;2022-12-07T09:31:31;10.27;;;3.28;;
842;SDS011;407;48.884;9.126;2022-12-07T09:33:57;7.07;;;2.35;;
842;SDS011;407;48.884;9.126;2022-12-07T09:36:25;8.05;;;2.40;;
842;SDS011;407;48.884;9.126;2022-12-07T09:38:52;11.82;;;3.75;;
842;SDS011;407;48.884;9.126;2022-12-07T09:41:17;9.77;;;3.70;;
842;SDS011;407;48.884;9.126;2022-12-07T09:43:44;8.50;;;3.20;;
842;SDS011;407;48.884;9.126;2022-12-07T09:46:13;10.30;;;3.30;;
842;SDS011;407;48.884;9.126;2022-12-07T09:48:42;9.30;;;3.50;;
842;SDS011;407;48.884;9.126;2022-12-07T09:51:16;9.05;;;3.42;;
842;SDS011;407;48.884;9.126;2022-12-07T09:53:47;9.60;;;3.20;;
842;SDS011;407;48.884;9.126;2022-12-07T09:56:14;7.88;;;3.10;;
842;SDS011;407;48.884;9.126;2022-12-07T09:58:42;9.20;;;3.17;;
842;SDS011;407;48.884;9.126;2022-12-07T10:03:37;8.47;;;3.00;;
842;SDS011;407;48.884;9.126;2022-12-07T10:06:05;9.57;;;3.60;;
842;SDS011;407;48.884;9.126;2022-12-07T10:08:32;9.02;;;2.80;;
842;SDS011;407;48.884;9.126;2022-12-07T10:10:58;10.30;;;2.90;;
842;SDS011;407;48.884;9.126;2022-12-07T10:13:38;10.18;;;2.42;;
842;SDS011;407;48.884;9.126;2022-12-07T10:16:06;8.27;;;2.80;;
842;SDS011;407;48.884;9.126;2022-12-07T10:18:50;7.68;;;2.35;;
842;SDS011;407;48.884;9.126;2022-12-07T10:24:00;8.13;;;2.75;;
842;SDS011;407;48.884;9.126;2022-12-07T10:29:02;8.53;;;2.70;;
842;SDS011;407;48.884;9.126;2022-12-07T10:31:47;8.48;;;2.88;;
842;SDS011;407;48.884;9.126;2022-12-07T10:34:23;8.02;;;2.13;;
842;SDS011;407;48.884;9.126;2022-12-07T10:36:51;8.73;;;2.73;;
842;SDS011;407;48.884;9.126;2022-12-07T10:39:18;7.60;;;2.50;;
842;SDS011;407;48.884;9.126;2022-12-07T10:41:58;8.30;;;2.40;;
842;SDS011;407;48.884;9.126;2022-12-07T10:44:27;7.47;;;2.70;;
842;SDS011;407;48.884;9.126;2022-12-07T10:46:57;8.98;;;2.28;;
842;SDS011;407;48.884;9.126;2022-12-07T11:00:31;9.52;;;3.67;;
842;SDS011;407;48.884;9.126;2022-12-07T11:03:23;8.33;;;3.10;;
842;SDS011;407;48.884;9.126;2022-12-07T11:05:57;12.13;;;3.35;;
842;SDS011;407;48.884;9.126;2022-12-07T11:11:33;10.05;;;3.05;;
842;SDS011;407;48.884;9.126;2022-12-07T11:16:48;11.45;;;4.10;;
842;SDS011;407;48.884;9.126;2022-12-07T11:38:17;12.30;;;5.13;;
842;SDS011;407;48.884;9.126;2022-12-07T11:40:48;12.75;;;4.10;;
842;SDS011;407;48.884;9.126;2022-12-07T11:46:25;12.57;;;4.50;;
842;SDS011;407;48.884;9.126;2022-12-07T11:52:09;10.70;;;5.00;;
842;SDS011;407;48.884;9.126;2022-12-07T11:54:42;11.05;;;4.72;;
842;SDS011;407;48.884;9.126;2022-12-07T11:57:53;13.10;;;5.05;;
842;SDS011;407;48.884;9.126;2022-12-07T12:00:06;10.68;;;4.60;;
842;SDS011;407;48.884;9.126;2022-12-07T12:02:48;11.27;;;4.45;;
842;SDS011;407;48.884;9.126;2022-12-07T12:05:26;12.05;;;4.90;;
842;SDS011;407;48.884;9.126;2022-12-07T12:07:59;11.57;;;4.87;;
842;SDS011;407;48.884;9.126;2022-12-07T12:10:46;12.48;;;5.13;;
842;SDS011;407;48.884;9.126;2022-12-07T12:21:19;12.75;;;5.30;;
842;SDS011;407;48.884;9.126;2022-12-07T12:23:55;12.38;;;4.63;;
842;SDS011;407;48.884;9.126;2022-12-07T12:26:29;13.02;;;5.47;;
842;SDS011;407;48.884;9.126;2022-12-07T12:29:00;11.27;;;4.87;;
842;SDS011;407;48.884;9.126;2022-12-07T12:33:58;11.57;;;4.40;;
842;SDS011;407;48.884;9.126;2022-12-07T12:36:28;11.27;;;4.60;;
842;SDS011;407;48.884;9.126;2022-12-07T12:47:02;13.35;;;5.75;;
842;SDS011;407;48.884;9.126;2022-12-07T12:55:11;12.35;;;5.47;;
842;SDS011;407;48.884;9.126;2022-12-07T12:57:36;12.65;;;5.45;;
842;SDS011;407;48.884;9.126;2022-12-07T13:02:51;13.90;;;6.30;;
842;SDS011;407;48.884;9.126;2022-12-07T13:05:28;14.85;;;6.63;;
842;SDS011;407;48.884;9.126;2022-12-07T13:08:02;14.50;;;5.40;;
842;SDS011;407;48.884;9.126;2022-12-07T13:10:41;16.50;;;6.70;;
842;SDS011;407;48.884;9.126;2022-12-07T13:23:21;14.45;;;5.45;;
842;SDS011;407;48.884;9.126;2022-12-07T13:25:51;15.05;;;6.60;;
842;SDS011;407;48.884;9.126;2022-12-07T13:28:40;15.05;;;6.75;;
842;SDS011;407;48.884;9.126;2022-12-07T13:31:53;16.03;;;7.43;;
842;SDS011;407;48.884;9.126;2022-12-07T13:34:05;18.40;;;7.35;;
842;SDS011;407;48.884;9.126;2022-12-07T13:36:49;17.75;;;7.80;;
842;SDS011;407;48.884;9.126;2022-12-07T13:39:18;13.32;;;6.03;;
842;SDS011;407;48.884;9.126;2022-12-07T13:42:06;14.40;;;6.20;;
842;SDS011;407;48.884;9.126;2022-12-07T13:44:46;14.40;;;6.18;;
842;SDS011;407;48.884;9.126;2022-12-07T13:49:51;15.35;;;6.15;;
842;SDS011;407;48.884;9.126;2022-12-07T13:54:54;13.82;;;6.18;;
842;SDS011;407;48.884;9.126;2022-12-07T13:57:24;27.02;;;10.80;;
842;SDS011;407;48.884;9.126;2022-12-07T13:59:50;20.45;;;8.45;;
842;SDS011;407;48.884;9.126;2022-12-07T14:02:20;19.83;;;7.60;;
842;SDS011;407;48.884;9.126;2022-12-07T14:04:51;30.98;;;9.93;;
842;SDS011;407;48.884;9.126;2022-12-07T14:07:31;31.00;;;11.30;;
842;SDS011;407;48.884;9.126;2022-12-07T14:09:59;25.75;;;8.93;;
842;SDS011;407;48.884;9.126;2022-12-07T14:12:29;23.23;;;9.87;;
842;SDS011;407;48.884;9.126;2022-12-07T14:14:56;18.67;;;7.88;;
842;SDS011;407;48.884;9.126;2022-12-07T14:17:24;23.50;;;9.65;;
842;SDS011;407;48.884;9.126;2022-12-07T14:22:26;20.63;;;8.97;;
842;SDS011;407;48.884;9.126;2022-12-07T14:27:52;22.77;;;9.02;;
842;SDS011;407;48.884;9.126;2022-12-07T14:30:24;28.03;;;10.20;;
842;SDS011;407;48.884;9.126;2022-12-07T14:32:57;17.90;;;7.88;;
842;SDS011;407;48.884;9.126;2022-12-07T14:35:25;22.40;;;8.90;;
842;SDS011;407;48.884;9.126;2022-12-07T14:37:51;27.73;;;11.75;;
842;SDS011;407;48.884;9.126;2022-12-07T14:40:27;25.13;;;9.80;;
842;SDS011;407;48.884;9.126;2022-12-07T14:42:54;21.50;;;9.23;;
842;SDS011;407;48.884;9.126;2022-12-07T14:45:23;22.23;;;8.60;;
842;SDS011;407;48.884;9.126;2022-12-07T14:47:49;20.02;;;8.70;;
842;SDS011;407;48.884;9.126;2022-12-07T14:50:16;19.10;;;8.75;;
842;SDS011;407;48.884;9.126;2022-12-07T14:52:44;17.70;;;7.75;;
842;SDS011;407;48.884;9.126;2022-12-07T14:55:20;14.60;;;6.05;;
842;SDS011;407;48.884;9.126;2022-12-07T14:57:50;14.90;;;6.60;;
842;SDS011;407;48.884;9.126;2022-12-07T15:00:16;16.95;;;6.43;;
842;SDS011;407;48.884;9.126;2022-12-07T15:02:43;19.02;;;6.50;;
842;SDS011;407;48.884;9.126;2022-12-07T15:05:10;17.73;;;8.27;;
842;SDS011;407;48.884;9.126;2022-12-07T15:07:36;15.48;;;7.90;;
842;SDS011;407;48.884;9.126;2022-12-07T15:10:02;20.85;;;9.95;;
842;SDS011;407;48.884;9.126;2022-12-07T15:12:28;20.58;;;9.25;;
842;SDS011;407;48.884;9.126;2022-12-07T15:14:53;19.08;;;7.85;;
842;SDS011;407;48.884;9.126;2022-12-07T15:17:19;18.40;;;8.50;;
842;SDS011;407;48.884;9.126;2022-12-07T15:19:45;14.35;;;6.50;;
842;SDS011;407;48.884;9.126;2022-12-07T15:22:10;15.00;;;6.97;;
842;SDS011;407;48.884;9.126;2022-12-07T15:24:36;18.60;;;8.50;;
842;SDS011;407;48.884;9.126;2022-12-07T15:27:02;17.35;;;7.00;;
842;SDS011;407;48.884;9.126;2022-12-07T15:29:28;16.67;;;7.27;;
842;SDS011;407;48.884;9.126;2022-12-07T15:31:54;17.93;;;7.67;;
842;SDS011;407;48.884;9.126;2022-12-07T15:34:20;19.42;;;7.75;;
842;SDS011;407;48.884;9.126;2022-12-07T15:36:45;20.53;;;7.90;;
842;SDS011;407;48.884;9.126;2022-12-07T15:39:11;18.42;;;8.10;;
842;SDS011;407;48.884;9.126;2022-12-07T15:41:37;17.10;;;7.82;;
842;SDS011;407;48.884;9.126;2022-12-07T15:44:03;15.82;;;8.30;;
842;SDS011;407;48.884;9.126;2022-12-07T15:46:47;16.77;;;7.55;;
842;SDS011;407;48.884;9.126;2022-12-07T15:49:15;20.17;;;7.70;;
842;SDS011;407;48.884;9.126;2022-12-07T15:51:43;17.83;;;7.43;;
842;SDS011;407;48.884;9.126;2022-12-07T15:54:11;19.75;;;8.57;;
842;SDS011;407;48.884;9.126;2022-12-07T15:56:40;18.52;;;8.93;;
842;SDS011;407;48.884;9.126;2022-12-07T15:59:06;20.63;;;9.07;;
842;SDS011;407;48.884;9.126;2022-12-07T16:01:32;21.60;;;8.70;;
842;SDS011;407;48.884;9.126;2022-12-07T16:03:57;18.53;;;8.20;;
842;SDS011;407;48.884;9.126;2022-12-07T16:06:24;19.45;;;8.07;;
842;SDS011;407;48.884;9.126;2022-12-07T16:08:50;16.13;;;8.20;;
842;SDS011;407;48.884;9.126;2022-12-07T16:11:15;16.27;;;6.47;;
842;SDS011;407;48.884;9.126;2022-12-07T16:13:41;19.53;;;7.70;;
842;SDS011;407;48.884;9.126;2022-12-07T16:16:08;17.98;;;8.32;;
842;SDS011;407;48.884;9.126;2022-12-07T16:18:38;18.73;;;7.40;;
842;SDS011;407;48.884;9.126;2022-12-07T16:21:04;17.80;;;7.38;;
842;SDS011;407;48.884;9.126;2022-12-07T16:23:30;19.60;;;7.35;;
842;SDS011;407;48.884;9.126;2022-12-07T16:26:06;18.35;;;7.82;;
842;SDS011;407;48.884;9.126;2022-12-07T16:28:33;17.30;;;6.90;;
842;SDS011;407;48.884;9.126;2022-12-07T16:31:09;17.07;;;6.97;;
842;SDS011;407;48.884;9.126;2022-12-07T16:33:38;16.40;;;6.97;;
842;SDS011;407;48.884;9.126;2022-12-07T16:36:05;14.38;;;6.63;;
842;SDS011;407;48.884;9.126;2022-12-07T16:38:32;16.15;;;7.00;;
842;SDS011;407;48.884;9.126;2022-12-07T16:40:58;18.23;;;7.67;;
842;SDS011;407;48.884;9.126;2022-12-07T16:43:23;16.27;;;6.50;;
842;SDS011;407;48.884;9.126;2022-12-07T16:45:49;16.48;;;7.35;;
842;SDS011;407;48.884;9.126;2022-12-07T16:48:15;15.07;;;6.83;;
842;SDS011;407;48.884;9.126;2022-12-07T16:50:41;15.90;;;6.63;;
842;SDS011;407;48.884;9.126;2022-12-07T16:53:08;18.52;;;7.80;;
842;SDS011;407;48.884;9.126;2022-12-07T16:55:35;16.30;;;6.80;;
842;SDS011;407;48.884;9.126;2022-12-07T16:58:01;17.70;;;7.30;;
842;SDS011;407;48.884;9.126;2022-12-07T17:00:27;17.97;;;7.70;;
842;SDS011;407;48.884;9.126;2022-12-07T17:02:53;21.97;;;7.53;;
842;SDS011;407;48.884;9.126;2022-12-07T17:05:20;15.98;;;7.47;;
842;SDS011;407;48.884;9.126;2022-12-07T17:07:45;17.00;;;7.82;;
842;SDS011;407;48.884;9.126;2022-12-07T17:10:11;15.70;;;7.27;;
842;SDS011;407;48.884;9.126;2022-12-07T17:12:36;16.75;;;7.38;;
842;SDS011;407;48.884;9.126;2022-12-07T17:15:02;16.27;;;7.07;;
842;SDS011;407;48.884;9.126;2022-12-07T17:17:55;18.97;;;7.70;;
842;SDS011;407;48.884;9.126;2022-12-07T17:20:22;19.63;;;7.80;;
842;SDS011;407;48.884;9.126;2022-12-07T17:22:50;17.67;;;7.35;;
842;SDS011;407;48.884;9.126;2022-12-07T17:25:16;18.10;;;6.43;;
842;SDS011;407;48.884;9.126;2022-12-07T17:27:42;17.48;;;7.07;;
842;SDS011;407;48.884;9.126;2022-12-07T17:30:09;13.87;;;5.90;;
842;SDS011;407;48.884;9.126;2022-12-07T17:32:35;16.13;;;6.93;;
842;SDS011;407;48.884;9.126;2022-12-07T17:35:01;14.95;;;6.45;;
842;SDS011;407;48.884;9.126;2022-12-07T17:37:27;12.95;;;6.80;;
842;SDS011;407;48.884;9.126;2022-12-07T17:39:53;14.27;;;5.50;;
842;SDS011;407;48.884;9.126;2022-12-07T17:42:22;19.33;;;7.30;;
842;SDS011;407;48.884;9.126;2022-12-07T17:45:04;14.45;;;6.40;;
842;SDS011;407;48.884;9.126;2022-12-07T17:47:32;16.83;;;7.25;;
842;SDS011;407;48.884;9.126;2022-12-07T17:49:58;14.30;;;6.63;;
842;SDS011;407;48.884;9.126;2022-12-07T17:52:24;16.07;;;6.37;;
842;SDS011;407;48.884;9.126;2022-12-07T17:55:08;15.40;;;6.60;;
842;SDS011;407;48.884;9.126;2022-12-07T17:57:33;14.80;;;6.23;;